Time;durP1;ratioP1;P1;durP2;ratioP2;P2;SDS_P1;SDS_P2;PMS_P1;PMS_P2;Temp;Humidity;BMP_temperature;BMP_pressure;BME280_temperature;BME280_humidity;BME280_pressure;Samples;Min_cycle;Max_cycle;Signal;HPM_P1;HPM_P2
2022/01/09 00:01:29;;;;;;;10.63;7.22;;;4.20;99.90;;;;;;5084199;28;20036;-70
2022/01/09 00:03:55;;;;;;;10.68;8.50;;;4.20;99.90;;;;;;5075954;28;20458;-70
2022/01/09 00:06:21;;;;;;;11.18;8.85;;;4.20;99.90;;;;;;5086170;28;20691;-70
2022/01/09 00:08:47;;;;;;;9.77;7.57;;;4.20;99.90;;;;;;5094238;28;20032;-70
2022/01/09 00:11:14;;;;;;;12.05;8.77;;;4.20;99.90;;;;;;5087359;28;20047;-70
2022/01/09 00:13:40;;;;;;;10.82;8.07;;;4.20;99.90;;;;;;5100124;28;20036;-70
2022/01/09 00:16:06;;;;;;;12.05;8.80;;;4.20;99.90;;;;;;5071680;28;20032;-70
2022/01/09 00:18:32;;;;;;;10.50;8.05;;;4.70;99.90;;;;;;5085935;28;20109;-70
2022/01/09 00:20:58;;;;;;;10.00;8.05;;;4.50;99.90;;;;;;5088088;28;20472;-70
2022/01/09 00:23:24;;;;;;;10.13;7.80;;;4.40;99.90;;;;;;5071169;28;20040;-70
2022/01/09 00:25:50;;;;;;;10.23;7.05;;;4.20;99.90;;;;;;5086682;28;20038;-70
2022/01/09 00:28:16;;;;;;;11.60;8.52;;;4.20;99.90;;;;;;5083984;28;20406;-70
2022/01/09 00:30:41;;;;;;;9.80;7.50;;;4.20;99.90;;;;;;5093149;28;20101;-70
2022/01/09 00:33:07;;;;;;;10.07;7.70;;;4.20;99.90;;;;;;5086956;28;21276;-70
2022/01/09 00:35:34;;;;;;;13.05;10.10;;;4.20;99.90;;;;;;5085573;28;20040;-70
2022/01/09 00:38:00;;;;;;;8.27;7.35;;;4.10;99.90;;;;;;5087307;28;20120;-70
2022/01/09 00:40:26;;;;;;;11.63;9.00;;;4.20;99.90;;;;;;5070753;28;20036;-70
2022/01/09 00:42:52;;;;;;;9.98;7.82;;;4.20;99.90;;;;;;5079671;28;20042;-70
2022/01/09 00:45:18;;;;;;;9.70;7.47;;;4.50;99.90;;;;;;5080839;28;20384;-70
2022/01/09 00:47:45;;;;;;;9.63;6.93;;;4.20;99.90;;;;;;5081048;28;20426;-70
2022/01/09 00:50:12;;;;;;;9.20;7.95;;;4.40;99.90;;;;;;5080985;28;20031;-70
2022/01/09 00:52:38;;;;;;;9.75;7.35;;;4.20;99.90;;;;;;5068773;28;20058;-70
2022/01/09 00:55:05;;;;;;;10.82;8.35;;;4.20;99.90;;;;;;5082138;28;20035;-70
2022/01/09 00:57:32;;;;;;;9.93;8.60;;;4.20;99.90;;;;;;5067396;28;20062;-70
2022/01/09 00:59:58;;;;;;;11.55;8.52;;;4.20;99.90;;;;;;5091902;28;20047;-70
2022/01/09 01:02:24;;;;;;;10.68;8.77;;;4.20;99.90;;;;;;5085723;28;20126;-70
2022/01/09 01:04:51;;;;;;;9.30;8.27;;;4.20;99.90;;;;;;5070182;28;20387;-70
2022/01/09 01:07:20;;;;;;;10.18;8.13;;;4.20;99.90;;;;;;5087546;28;20055;-70
2022/01/09 01:09:46;;;;;;;11.43;9.48;;;4.10;99.90;;;;;;5088276;28;20035;-70
2022/01/09 01:12:12;;;;;;;11.95;9.15;;;4.20;99.90;;;;;;5083918;28;20039;-70
2022/01/09 01:14:38;;;;;;;11.43;7.78;;;4.20;99.90;;;;;;5087459;28;20372;-70
2022/01/09 01:17:04;;;;;;;11.38;8.88;;;4.20;99.90;;;;;;5080798;28;20051;-70
2022/01/09 01:19:30;;;;;;;9.77;7.85;;;4.20;99.90;;;;;;5086895;28;20553;-70
2022/01/09 01:21:58;;;;;;;11.48;9.40;;;4.20;99.90;;;;;;5085731;28;20111;-70
2022/01/09 01:24:24;;;;;;;14.73;11.63;;;4.20;99.90;;;;;;5068576;28;20163;-70
2022/01/09 01:26:50;;;;;;;13.27;10.82;;;4.40;99.90;;;;;;5083121;28;20115;-70
2022/01/09 01:29:16;;;;;;;11.93;10.35;;;4.20;99.90;;;;;;5065659;28;20411;-70
2022/01/09 01:31:42;;;;;;;15.52;11.77;;;4.40;99.90;;;;;;5072170;28;20062;-70
2022/01/09 01:34:08;;;;;;;13.82;11.18;;;4.20;99.90;;;;;;5071654;28;20039;-70
2022/01/09 01:36:33;;;;;;;13.73;11.20;;;4.40;99.90;;;;;;5091109;28;20134;-70
2022/01/09 01:38:59;;;;;;;14.18;11.30;;;4.20;99.90;;;;;;5082713;28;20765;-70
2022/01/09 01:41:25;;;;;;;15.73;12.68;;;4.20;99.90;;;;;;5085154;28;20105;-70
2022/01/09 01:43:51;;;;;;;16.38;12.25;;;4.70;99.90;;;;;;5086951;28;20485;-70
2022/01/09 01:46:16;;;;;;;17.85;13.75;;;4.20;99.90;;;;;;5080296;28;20108;-70
2022/01/09 01:48:42;;;;;;;16.00;12.48;;;4.20;99.90;;;;;;5086548;28;20079;-70
2022/01/09 01:51:08;;;;;;;15.52;12.55;;;4.20;99.90;;;;;;5087415;28;20471;-70
2022/01/09 01:53:34;;;;;;;13.23;11.38;;;4.20;99.90;;;;;;5085430;28;20156;-70
2022/01/09 01:56:01;;;;;;;16.27;11.65;;;4.20;99.90;;;;;;5086025;28;20032;-70
2022/01/09 01:58:27;;;;;;;14.68;12.20;;;4.80;99.90;;;;;;5084834;28;20062;-70
2022/01/09 02:00:53;;;;;;;15.23;11.88;;;4.20;99.90;;;;;;5088773;28;20043;-70
2022/01/09 02:03:19;;;;;;;14.35;11.73;;;4.20;99.90;;;;;;5067852;28;20122;-70
2022/01/09 02:05:46;;;;;;;20.27;14.60;;;4.20;99.90;;;;;;5087598;28;20032;-70
2022/01/09 02:08:12;;;;;;;16.75;13.07;;;4.20;99.90;;;;;;5069875;28;20035;-70
2022/01/09 02:10:44;;;;;;;20.60;15.63;;;4.20;99.90;;;;;;5086909;28;20035;-68
2022/01/09 02:13:10;;;;;;;19.33;15.85;;;4.20;99.90;;;;;;5081973;28;20047;-69
2022/01/09 02:15:38;;;;;;;18.10;13.60;;;4.20;99.90;;;;;;5084341;28;20084;-69
2022/01/09 02:18:07;;;;;;;18.63;14.85;;;4.20;99.90;;;;;;5085889;28;20115;-69
2022/01/09 02:20:33;;;;;;;24.67;18.10;;;4.20;99.90;;;;;;5087455;28;20091;-69
2022/01/09 02:22:59;;;;;;;19.40;14.60;;;4.20;99.90;;;;;;5075864;28;20077;-69
2022/01/09 02:25:26;;;;;;;23.55;17.95;;;4.20;99.90;;;;;;5083807;28;20408;-69
2022/01/09 02:27:52;;;;;;;27.95;19.30;;;4.20;99.90;;;;;;5091321;28;20049;-69
2022/01/09 02:30:18;;;;;;;21.92;16.50;;;4.20;99.90;;;;;;5072916;28;20436;-69
2022/01/09 02:32:43;;;;;;;27.98;15.80;;;4.50;99.90;;;;;;5075636;28;20063;-69
2022/01/09 02:35:09;;;;;;;20.30;14.80;;;4.20;99.90;;;;;;5087747;28;20171;-69
2022/01/09 02:37:35;;;;;;;25.77;18.42;;;4.20;99.90;;;;;;5087517;28;20341;-69
2022/01/09 02:40:00;;;;;;;31.08;19.60;;;4.30;99.90;;;;;;5094028;28;20036;-69
2022/01/09 02:42:29;;;;;;;24.83;18.13;;;4.20;99.90;;;;;;5090800;28;20027;-69
2022/01/09 02:44:55;;;;;;;28.50;20.13;;;4.30;99.90;;;;;;5090630;28;20081;-69
2022/01/09 02:47:22;;;;;;;25.92;18.08;;;4.30;99.90;;;;;;5084996;28;20044;-69
2022/01/09 02:49:51;;;;;;;31.33;20.23;;;4.30;99.90;;;;;;5086777;28;20311;-69
2022/01/09 02:52:32;;;;;;;31.58;20.83;;;4.30;99.90;;;;;;5071907;28;20040;-69
2022/01/09 02:55:11;;;;;;;25.15;17.23;;;4.30;99.90;;;;;;5066344;28;20067;-69
2022/01/09 02:57:57;;;;;;;29.00;19.75;;;4.30;99.90;;;;;;5087541;28;20051;-69
2022/01/09 03:00:27;;;;;;;27.05;18.88;;;4.40;99.90;;;;;;5090256;28;20046;-69
2022/01/09 03:02:54;;;;;;;27.65;18.77;;;4.40;99.90;;;;;;5086353;28;20031;-69
2022/01/09 03:05:20;;;;;;;25.27;16.95;;;4.30;99.90;;;;;;5066626;28;20032;-69
2022/01/09 03:07:46;;;;;;;30.35;17.85;;;4.40;99.90;;;;;;5087750;28;20035;-69
2022/01/09 03:10:14;;;;;;;26.70;17.63;;;5.10;99.90;;;;;;5086044;28;20135;-69
2022/01/09 03:12:40;;;;;;;32.53;19.15;;;5.10;99.90;;;;;;5091864;28;20042;-69
2022/01/09 03:15:07;;;;;;;31.45;17.48;;;4.50;99.90;;;;;;5069159;28;20044;-69
2022/01/09 03:17:33;;;;;;;31.65;18.42;;;4.50;99.90;;;;;;5069884;28;20043;-69
2022/01/09 03:19:59;;;;;;;31.70;18.98;;;4.50;99.90;;;;;;5089898;28;20071;-69
2022/01/09 03:22:25;;;;;;;33.63;17.50;;;4.60;99.90;;;;;;5096355;28;20120;-69
2022/01/09 03:24:51;;;;;;;29.13;15.95;;;4.80;99.90;;;;;;5080954;28;20057;-69
2022/01/09 03:27:17;;;;;;;26.65;13.85;;;4.60;99.90;;;;;;5088530;28;20233;-69
2022/01/09 03:29:44;;;;;;;22.95;12.93;;;4.60;99.90;;;;;;5072896;28;20709;-69
2022/01/09 03:32:10;;;;;;;23.83;14.02;;;4.70;99.90;;;;;;5089087;28;20126;-69
2022/01/09 03:34:36;;;;;;;22.55;12.60;;;4.70;99.90;;;;;;5071414;28;20390;-69
2022/01/09 03:37:02;;;;;;;21.10;12.38;;;4.80;99.90;;;;;;5080376;28;20077;-69
2022/01/09 03:39:28;;;;;;;27.40;11.73;;;4.80;99.90;;;;;;5083349;28;20036;-70
2022/01/09 03:41:56;;;;;;;23.60;11.20;;;4.80;99.90;;;;;;5090721;28;20027;-69
2022/01/09 03:44:22;;;;;;;29.55;12.23;;;4.80;99.90;;;;;;5089656;28;20291;-69
2022/01/09 03:46:48;;;;;;;19.27;10.18;;;4.90;99.90;;;;;;5072067;28;20055;-69
2022/01/09 03:49:15;;;;;;;24.15;9.27;;;4.90;99.90;;;;;;5073170;28;20071;-69
2022/01/09 03:51:44;;;;;;;23.92;8.68;;;4.90;99.90;;;;;;5107056;27;20569;-69
2022/01/09 03:54:09;;;;;;;26.52;8.68;;;5.50;99.90;;;;;;5085018;28;20028;-69
2022/01/09 03:56:35;;;;;;;34.13;8.02;;;5.00;99.90;;;;;;5088481;28;20114;-69
2022/01/09 03:59:01;;;;;;;23.80;6.25;;;5.00;99.90;;;;;;5086649;28;20035;-69
2022/01/09 04:01:27;;;;;;;25.48;7.15;;;5.10;99.90;;;;;;5062825;28;20491;-69
2022/01/09 04:03:53;;;;;;;17.30;5.25;;;5.10;99.90;;;;;;5082503;28;20043;-69
2022/01/09 04:06:19;;;;;;;22.00;5.85;;;5.10;99.90;;;;;;5098409;28;20046;-69
2022/01/09 04:08:45;;;;;;;31.30;5.75;;;5.80;99.90;;;;;;5086683;28;20406;-69
2022/01/09 04:11:13;;;;;;;27.42;5.68;;;5.50;99.90;;;;;;5086104;28;20122;-69
2022/01/09 04:13:39;;;;;;;25.63;5.40;;;5.50;99.90;;;;;;5083009;28;20051;-70
2022/01/09 04:16:05;;;;;;;33.78;6.28;;;5.60;99.90;;;;;;5090330;28;20067;-69
2022/01/09 04:18:31;;;;;;;45.65;7.60;;;5.50;99.90;;;;;;5088080;28;20317;-69
2022/01/09 04:20:58;;;;;;;42.45;7.70;;;5.50;99.90;;;;;;5069794;28;20057;-69
2022/01/09 04:23:24;;;;;;;43.63;7.18;;;5.60;99.90;;;;;;5089056;28;20031;-69
2022/01/09 04:25:50;;;;;;;46.55;9.65;;;5.70;99.90;;;;;;5089507;28;20051;-69
2022/01/09 04:28:16;;;;;;;36.60;7.93;;;5.60;99.90;;;;;;5087538;28;20039;-69
2022/01/09 04:30:42;;;;;;;43.40;7.93;;;6.20;99.90;;;;;;5069684;28;20444;-69
2022/01/09 04:33:10;;;;;;;36.63;6.95;;;6.40;99.90;;;;;;5084648;28;20097;-69
2022/01/09 04:35:38;;;;;;;47.60;8.38;;;5.60;99.90;;;;;;5090195;28;20081;-69
2022/01/09 04:38:04;;;;;;;49.83;7.88;;;5.80;99.90;;;;;;5071771;28;20054;-69
2022/01/09 04:40:30;;;;;;;39.25;7.32;;;5.90;99.90;;;;;;5087564;28;20039;-69
2022/01/09 04:43:01;;;;;;;52.20;7.35;;;5.80;99.90;;;;;;5086310;28;20090;-69
2022/01/09 04:45:28;;;;;;;38.47;7.13;;;5.60;99.90;;;;;;5090316;28;20036;-69
2022/01/09 04:48:02;;;;;;;36.05;6.80;;;5.90;99.90;;;;;;5084714;28;20781;-69
2022/01/09 04:50:30;;;;;;;45.45;7.70;;;5.90;99.90;;;;;;5084889;28;20099;-69
2022/01/09 04:53:05;;;;;;;35.78;6.10;;;5.90;99.90;;;;;;5068371;28;20419;-69
2022/01/09 04:55:33;;;;;;;39.53;6.90;;;6.10;99.90;;;;;;5083815;28;20422;-69
2022/01/09 04:57:59;;;;;;;42.35;6.68;;;6.10;99.90;;;;;;5078621;28;20048;-69
2022/01/09 05:00:25;;;;;;;50.15;7.65;;;5.90;99.90;;;;;;5082734;28;20039;-69
2022/01/09 05:02:51;;;;;;;32.20;6.15;;;5.90;99.90;;;;;;5090226;28;20452;-69
2022/01/09 05:05:18;;;;;;;45.05;5.95;;;6.00;99.90;;;;;;5087083;28;20031;-69
2022/01/09 05:07:44;;;;;;;37.25;5.78;;;6.00;99.90;;;;;;5089346;28;20070;-69
2022/01/09 05:10:11;;;;;;;39.92;6.32;;;6.00;99.90;;;;;;5071209;28;20039;-69
2022/01/09 05:12:37;;;;;;;32.42;5.45;;;5.90;99.90;;;;;;5086642;28;20039;-69
2022/01/09 05:15:04;;;;;;;40.78;6.63;;;6.50;99.90;;;;;;5080106;28;20042;-69
2022/01/09 05:17:30;;;;;;;37.20;5.93;;;5.90;99.90;;;;;;5083642;28;20108;-69
2022/01/09 05:19:57;;;;;;;31.25;5.18;;;6.20;99.90;;;;;;5088275;28;20134;-69
2022/01/09 05:22:30;;;;;;;26.45;5.30;;;5.90;99.90;;;;;;5087763;28;20442;-69
2022/01/09 05:24:58;;;;;;;26.38;5.03;;;5.90;99.90;;;;;;5066535;28;20180;-69
2022/01/09 05:27:24;;;;;;;35.40;7.10;;;5.90;99.90;;;;;;5071425;28;20411;-69
2022/01/09 05:29:51;;;;;;;24.67;4.53;;;6.00;99.90;;;;;;5089257;28;20039;-69
2022/01/09 05:32:17;;;;;;;26.13;5.60;;;6.00;99.90;;;;;;5081720;28;20062;-69
2022/01/09 05:34:44;;;;;;;35.80;4.68;;;6.00;99.90;;;;;;5082586;28;20035;-69
2022/01/09 05:37:09;;;;;;;31.17;4.70;;;6.40;99.90;;;;;;5081629;28;20047;-69
2022/01/09 05:39:35;;;;;;;26.85;4.90;;;6.70;99.90;;;;;;5068442;28;20415;-69
2022/01/09 05:42:05;;;;;;;33.00;5.18;;;6.00;99.90;;;;;;5092994;28;20380;-70
2022/01/09 05:44:32;;;;;;;24.27;5.63;;;5.90;99.90;;;;;;5093477;28;20042;-69
2022/01/09 05:46:58;;;;;;;29.98;4.90;;;6.00;99.90;;;;;;5080288;28;20048;-69
2022/01/09 05:49:24;;;;;;;29.42;5.20;;;6.40;99.90;;;;;;5073691;28;20052;-69
2022/01/09 05:51:50;;;;;;;22.63;4.15;;;6.00;99.90;;;;;;5069977;28;20043;-69
2022/01/09 05:54:15;;;;;;;28.10;4.38;;;5.80;99.90;;;;;;5084626;28;20042;-69
2022/01/09 05:56:41;;;;;;;20.95;4.15;;;6.00;99.90;;;;;;5082194;28;20035;-69
2022/01/09 05:59:07;;;;;;;39.55;4.68;;;5.70;99.90;;;;;;5089723;28;20070;-69
2022/01/09 06:01:32;;;;;;;25.50;4.25;;;6.20;99.90;;;;;;5068232;28;20035;-70
2022/01/09 06:03:58;;;;;;;25.45;3.53;;;5.70;99.90;;;;;;5086873;28;20054;-69
2022/01/09 06:06:24;;;;;;;21.65;3.92;;;5.70;99.90;;;;;;5072151;28;20073;-69
2022/01/09 06:08:49;;;;;;;24.55;3.90;;;5.70;99.90;;;;;;5087956;28;20032;-69
2022/01/09 06:11:15;;;;;;;21.55;4.15;;;6.10;99.90;;;;;;5084861;28;20096;-69
2022/01/09 06:13:41;;;;;;;18.33;4.22;;;5.70;99.90;;;;;;5065760;28;20104;-69
2022/01/09 06:16:07;;;;;;;25.70;5.32;;;5.90;99.90;;;;;;5067665;28;20043;-69
2022/01/09 06:18:33;;;;;;;26.42;4.28;;;5.60;99.90;;;;;;5081417;28;20039;-69
2022/01/09 06:20:58;;;;;;;29.63;4.78;;;5.50;99.90;;;;;;5086773;28;20063;-69
2022/01/09 06:23:24;;;;;;;24.67;4.55;;;5.70;99.90;;;;;;5085288;28;20110;-69
2022/01/09 06:25:53;;;;;;;15.90;3.30;;;5.90;99.90;;;;;;5082416;28;20047;-69
2022/01/09 06:28:19;;;;;;;23.85;3.63;;;5.60;99.90;;;;;;5080431;28;20106;-69
2022/01/09 06:30:45;;;;;;;19.95;4.85;;;5.80;99.90;;;;;;5086077;28;20055;-69
2022/01/09 06:33:11;;;;;;;21.52;4.00;;;5.50;99.90;;;;;;5084029;28;20044;-69
2022/01/09 06:35:39;;;;;;;41.40;8.85;;;5.60;99.90;;;;;;5069741;28;20066;-69
2022/01/09 06:38:05;;;;;;;24.73;4.82;;;5.50;99.90;;;;;;5069720;28;20036;-69
2022/01/09 06:40:31;;;;;;;23.33;3.83;;;5.80;99.90;;;;;;5082110;28;20036;-69
2022/01/09 06:42:58;;;;;;;21.65;3.88;;;5.50;99.90;;;;;;5085623;28;20086;-69
2022/01/09 06:45:24;;;;;;;22.38;5.75;;;5.50;99.90;;;;;;5086371;28;20075;-69
2022/01/09 06:47:55;;;;;;;18.83;3.55;;;5.60;99.90;;;;;;5084468;28;20104;-69
2022/01/09 06:50:21;;;;;;;24.77;4.65;;;5.70;99.90;;;;;;5086227;28;20043;-69
2022/01/09 06:52:48;;;;;;;20.95;3.45;;;5.20;99.90;;;;;;5087294;28;20137;-69
2022/01/09 06:55:14;;;;;;;25.75;4.32;;;5.80;99.90;;;;;;5081605;28;20135;-69
2022/01/09 06:57:40;;;;;;;22.10;3.30;;;5.40;99.90;;;;;;5102409;28;20028;-69
2022/01/09 07:00:07;;;;;;;16.58;4.07;;;5.30;99.90;;;;;;5081529;28;20050;-69
2022/01/09 07:02:32;;;;;;;30.55;4.80;;;4.90;99.90;;;;;;5081485;28;20061;-68
2022/01/09 07:04:58;;;;;;;19.70;3.67;;;5.20;99.90;;;;;;5084008;28;21083;-68
2022/01/09 07:07:24;;;;;;;25.73;4.88;;;5.60;99.90;;;;;;5085883;28;20067;-69
2022/01/09 07:09:50;;;;;;;25.20;3.75;;;5.80;99.90;;;;;;5067052;28;20032;-69
2022/01/09 07:12:15;;;;;;;18.35;2.90;;;5.20;99.90;;;;;;5084291;28;20487;-68
2022/01/09 07:14:41;;;;;;;21.33;3.67;;;5.20;99.90;;;;;;5090509;28;20264;-68
2022/01/09 07:17:07;;;;;;;16.77;4.18;;;5.20;99.90;;;;;;5085313;28;20039;-69
2022/01/09 07:19:33;;;;;;;21.13;3.80;;;5.20;99.90;;;;;;5085592;28;20078;-69
2022/01/09 07:21:58;;;;;;;25.30;5.30;;;5.30;99.90;;;;;;5086066;28;20043;-69
2022/01/09 07:24:24;;;;;;;19.77;5.07;;;5.20;99.90;;;;;;5087225;28;20122;-69
2022/01/09 07:26:50;;;;;;;18.35;3.80;;;5.20;99.90;;;;;;5074807;28;20032;-69
2022/01/09 07:29:16;;;;;;;17.52;4.88;;;5.00;99.90;;;;;;5087101;28;20043;-69
2022/01/09 07:31:42;;;;;;;16.42;3.35;;;5.70;99.90;;;;;;5087594;28;20439;-69
2022/01/09 07:34:07;;;;;;;24.08;3.05;;;5.30;99.90;;;;;;5085583;28;20066;-68
2022/01/09 07:36:33;;;;;;;23.50;3.45;;;5.40;99.90;;;;;;5090097;28;20085;-69
2022/01/09 07:38:59;;;;;;;20.27;3.85;;;5.20;99.90;;;;;;5067127;28;20493;-69
2022/01/09 07:41:25;;;;;;;20.25;3.38;;;5.10;99.90;;;;;;5080697;28;20043;-68
2022/01/09 07:43:51;;;;;;;16.00;3.35;;;5.10;99.90;;;;;;5085269;28;20039;-68
2022/01/09 07:46:16;;;;;;;19.40;3.33;;;4.90;99.90;;;;;;5085499;28;20045;-69
2022/01/09 07:48:42;;;;;;;26.92;3.60;;;4.90;99.90;;;;;;5084147;28;20122;-69
2022/01/09 07:51:08;;;;;;;15.20;3.08;;;5.20;99.90;;;;;;5089028;28;20043;-68
2022/01/09 07:53:34;;;;;;;18.02;3.65;;;5.10;99.90;;;;;;5084712;28;20044;-69
2022/01/09 07:55:59;;;;;;;21.25;3.13;;;4.90;99.90;;;;;;5071281;28;20054;-69
2022/01/09 07:58:25;;;;;;;17.05;3.15;;;5.10;99.90;;;;;;5071467;28;20122;-69
2022/01/09 08:00:51;;;;;;;17.90;3.63;;;4.80;99.90;;;;;;5072326;28;20039;-69
2022/01/09 08:03:16;;;;;;;16.58;3.33;;;5.00;99.90;;;;;;5059526;28;20620;-69
2022/01/09 08:05:42;;;;;;;17.17;3.63;;;5.00;99.90;;;;;;5076065;28;20093;-69
2022/01/09 08:08:08;;;;;;;16.33;2.95;;;4.90;99.90;;;;;;5083822;28;20669;-69
2022/01/09 08:10:34;;;;;;;19.60;4.47;;;5.00;99.90;;;;;;5066803;28;20120;-69
2022/01/09 08:13:00;;;;;;;14.45;2.53;;;5.00;99.90;;;;;;5080979;28;20044;-69
2022/01/09 08:15:29;;;;;;;19.05;3.47;;;5.20;99.90;;;;;;5064419;28;20122;-69
2022/01/09 08:17:55;;;;;;;19.50;2.90;;;4.90;99.90;;;;;;5085188;28;20089;-69
2022/01/09 08:20:21;;;;;;;13.15;3.03;;;4.90;99.90;;;;;;5085833;28;20443;-68
2022/01/09 08:22:47;;;;;;;14.68;2.25;;;4.90;99.90;;;;;;5076248;28;20096;-69
2022/01/09 08:25:17;;;;;;;9.88;1.70;;;4.90;99.90;;;;;;5084964;28;20027;-69
2022/01/09 08:27:44;;;;;;;14.90;3.00;;;4.90;99.90;;;;;;5080274;28;20035;-69
2022/01/09 08:30:12;;;;;;;10.05;2.53;;;4.80;99.90;;;;;;5085912;28;20100;-69
2022/01/09 08:32:38;;;;;;;10.50;2.03;;;5.40;99.90;;;;;;5087312;28;20056;-69
2022/01/09 08:35:05;;;;;;;11.18;1.92;;;4.90;99.90;;;;;;5078338;28;20126;-69
2022/01/09 08:37:31;;;;;;;13.98;2.58;;;4.90;99.90;;;;;;5083794;28;20042;-69
2022/01/09 08:39:57;;;;;;;12.80;2.88;;;4.90;99.90;;;;;;5086959;28;20078;-69
2022/01/09 08:42:23;;;;;;;16.45;2.50;;;5.00;99.90;;;;;;5073033;28;20032;-69
2022/01/09 08:44:48;;;;;;;13.63;2.25;;;4.90;99.90;;;;;;5067507;28;20042;-69
2022/01/09 08:47:14;;;;;;;11.02;2.30;;;4.90;99.90;;;;;;5071465;28;20040;-68
2022/01/09 08:49:40;;;;;;;12.32;2.22;;;4.90;99.90;;;;;;5076422;28;20119;-68
2022/01/09 08:52:06;;;;;;;10.45;1.80;;;4.90;99.90;;;;;;5073416;28;20089;-68
2022/01/09 08:54:32;;;;;;;11.20;2.00;;;4.90;99.90;;;;;;5049552;28;20121;-69
2022/01/09 08:56:58;;;;;;;14.52;2.22;;;4.90;99.90;;;;;;5076767;28;20117;-69
2022/01/09 08:59:24;;;;;;;10.85;2.33;;;4.70;99.90;;;;;;5061311;28;20056;-69
2022/01/09 09:01:50;;;;;;;11.20;2.63;;;4.90;99.90;;;;;;5060455;28;20040;-68
2022/01/09 09:04:16;;;;;;;12.77;2.60;;;4.90;99.90;;;;;;5055074;28;20049;-68
2022/01/09 09:06:42;;;;;;;14.40;2.28;;;4.90;99.90;;;;;;5060960;28;20377;-68
2022/01/09 09:09:08;;;;;;;14.75;2.25;;;4.70;99.90;;;;;;5065271;28;20037;-68
2022/01/09 09:11:35;;;;;;;11.45;2.22;;;4.90;99.90;;;;;;5048520;28;20123;-69
2022/01/09 09:14:02;;;;;;;16.10;2.95;;;4.70;99.90;;;;;;5063527;28;20488;-68
2022/01/09 09:16:28;;;;;;;10.70;2.88;;;4.80;99.90;;;;;;5065617;28;20074;-68
2022/01/09 09:18:54;;;;;;;16.42;2.75;;;5.00;99.90;;;;;;5064591;28;20052;-68
2022/01/09 09:21:19;;;;;;;16.40;3.22;;;5.00;99.90;;;;;;5061559;28;20652;-68
2022/01/09 09:23:46;;;;;;;16.92;2.78;;;4.90;99.90;;;;;;5049614;28;20442;-68
2022/01/09 09:26:12;;;;;;;11.60;2.58;;;5.00;99.90;;;;;;5060667;28;20490;-68
2022/01/09 09:28:38;;;;;;;15.68;2.58;;;5.10;99.90;;;;;;5024369;28;20044;-68
2022/01/09 09:31:05;;;;;;;11.23;2.33;;;4.90;99.90;;;;;;5061315;28;20446;-68
2022/01/09 09:33:30;;;;;;;14.68;2.58;;;5.30;99.90;;;;;;5022592;28;20045;-68
2022/01/09 09:35:59;;;;;;;16.40;2.30;;;5.10;99.90;;;;;;5058350;28;20433;-70
2022/01/09 09:38:26;;;;;;;16.20;3.95;;;5.10;99.90;;;;;;5041140;28;20052;-69
2022/01/09 09:40:52;;;;;;;16.67;2.90;;;5.20;99.90;;;;;;5063571;28;20056;-68
2022/01/09 09:43:19;;;;;;;14.88;3.05;;;5.20;99.90;;;;;;5050235;28;20045;-69
2022/01/09 09:45:45;;;;;;;14.40;2.55;;;5.10;99.90;;;;;;5056998;28;20048;-69
2022/01/09 09:48:10;;;;;;;10.52;2.70;;;5.20;99.90;;;;;;5039881;28;20049;-68
2022/01/09 09:50:36;;;;;;;17.55;2.90;;;5.20;99.90;;;;;;5065148;28;20108;-69
2022/01/09 09:53:02;;;;;;;15.65;3.88;;;5.90;99.90;;;;;;5064444;28;20059;-69
2022/01/09 09:55:29;;;;;;;12.52;2.10;;;5.20;99.90;;;;;;5044185;28;20037;-69
2022/01/09 09:57:55;;;;;;;10.82;3.08;;;5.10;99.90;;;;;;5053832;28;20132;-69
2022/01/09 10:00:22;;;;;;;14.27;2.17;;;5.60;99.90;;;;;;5063511;28;20058;-69
2022/01/09 10:02:57;;;;;;;10.02;2.05;;;5.30;99.90;;;;;;5065314;28;20044;-69
2022/01/09 10:05:26;;;;;;;12.05;2.25;;;5.30;99.90;;;;;;5065226;28;20032;-69
2022/01/09 10:07:53;;;;;;;12.88;3.42;;;5.30;99.90;;;;;;5063590;28;20052;-69
2022/01/09 10:10:22;;;;;;;12.07;2.88;;;5.10;99.90;;;;;;5048272;28;20090;-70
2022/01/09 10:12:48;;;;;;;11.30;1.77;;;5.30;99.90;;;;;;5059799;28;20086;-70
2022/01/09 10:15:19;;;;;;;11.90;2.72;;;5.80;99.90;;;;;;5065975;28;20127;-70
2022/01/09 10:17:47;;;;;;;12.40;2.15;;;5.30;99.90;;;;;;5065629;28;20040;-70
2022/01/09 10:20:14;;;;;;;15.48;2.05;;;5.20;99.90;;;;;;5063274;28;20098;-69
2022/01/09 10:22:46;;;;;;;12.30;1.88;;;5.30;99.90;;;;;;5065120;28;20032;-69
2022/01/09 10:25:21;;;;;;;6.75;1.60;;;5.40;99.90;;;;;;5063395;28;20062;-69
2022/01/09 10:27:48;;;;;;;7.55;1.83;;;5.30;99.90;;;;;;5051881;28;20072;-68
2022/01/09 10:30:15;;;;;;;5.68;2.03;;;5.30;99.90;;;;;;5060219;28;20040;-69
2022/01/09 10:32:41;;;;;;;6.32;1.38;;;5.10;99.90;;;;;;5059189;28;20056;-70
2022/01/09 10:35:16;;;;;;;10.85;2.75;;;5.60;99.90;;;;;;5057832;28;20091;-69
2022/01/09 10:37:45;;;;;;;10.80;1.27;;;5.60;99.90;;;;;;5063724;28;20420;-69
2022/01/09 10:40:20;;;;;;;6.68;1.60;;;5.40;99.90;;;;;;5060434;28;20037;-69
2022/01/09 10:43:08;;;;;;;9.40;2.40;;;5.40;99.90;;;;;;5066162;28;20044;-69
2022/01/09 10:45:40;;;;;;;10.02;2.00;;;5.40;99.90;;;;;;5064892;28;20553;-69
2022/01/09 10:48:19;;;;;;;9.27;1.90;;;5.40;99.90;;;;;;5068578;28;20199;-70
2022/01/09 10:50:47;;;;;;;9.77;1.85;;;5.20;99.90;;;;;;5082897;28;20055;-69
2022/01/09 10:53:21;;;;;;;8.23;1.85;;;5.50;99.90;;;;;;5070522;28;20071;-70
2022/01/09 10:56:00;;;;;;;10.02;2.00;;;5.40;99.90;;;;;;5085810;28;20457;-70
2022/01/09 10:58:27;;;;;;;8.18;1.65;;;5.40;99.90;;;;;;5090998;28;20044;-69
2022/01/09 11:01:23;;;;;;;10.55;1.83;;;5.30;99.90;;;;;;5071841;28;20381;-70
2022/01/09 11:03:54;;;;;;;7.88;1.77;;;5.50;99.90;;;;;;5085885;28;20046;-70
2022/01/09 11:06:22;;;;;;;8.55;2.45;;;5.50;99.90;;;;;;5088708;28;20044;-70
2022/01/09 11:08:50;;;;;;;9.63;2.40;;;5.40;99.90;;;;;;5080303;28;20029;-70
2022/01/09 11:11:27;;;;;;;5.68;1.73;;;5.20;99.90;;;;;;5089493;28;20075;-70
2022/01/09 11:13:55;;;;;;;9.55;2.20;;;5.20;99.90;;;;;;5090588;28;20036;-69
2022/01/09 11:16:33;;;;;;;12.68;2.70;;;5.50;99.90;;;;;;5090132;28;20496;-69
2022/01/09 11:19:01;;;;;;;11.18;2.42;;;5.50;99.90;;;;;;5106638;28;20040;-69
2022/01/09 11:21:28;;;;;;;10.85;2.50;;;5.50;99.90;;;;;;5072089;28;20052;-69
2022/01/09 11:24:31;;;;;;;5.82;1.77;;;6.30;99.90;;;;;;5085934;28;20032;-69
2022/01/09 11:27:18;;;;;;;8.95;1.80;;;5.70;99.90;;;;;;5084377;28;20130;-69
2022/01/09 11:30:06;;;;;;;8.90;2.00;;;5.70;99.90;;;;;;5054153;28;20211;-69
2022/01/09 11:33:04;;;;;;;4.93;1.90;;;5.80;99.90;;;;;;5085164;28;20405;-69
2022/01/09 11:36:04;;;;;;;8.13;2.05;;;5.80;99.90;;;;;;5080279;28;20040;-68
2022/01/09 11:39:14;;;;;;;11.10;3.17;;;5.80;99.90;;;;;;5055389;28;20044;-69
2022/01/09 11:41:41;;;;;;;9.80;2.05;;;5.90;99.90;;;;;;5040208;28;20511;-69
2022/01/09 11:44:11;;;;;;;9.07;2.30;;;5.90;99.90;;;;;;5082203;28;20176;-69
2022/01/09 11:47:04;;;;;;;8.27;1.88;;;6.00;99.90;;;;;;5083556;28;20044;-68
2022/01/09 11:49:38;;;;;;;11.05;2.78;;;6.10;99.90;;;;;;5083309;28;20568;-69
2022/01/09 11:52:05;;;;;;;14.60;2.92;;;6.10;99.90;;;;;;5083261;28;20112;-69
2022/01/09 11:54:54;;;;;;;16.88;2.88;;;6.30;99.90;;;;;;5069697;28;20134;-69
2022/01/09 11:57:49;;;;;;;15.35;2.80;;;6.40;99.90;;;;;;5078376;28;20436;-69
2022/01/09 12:00:28;;;;;;;11.57;2.42;;;;;;;;;;5077315;28;20458;-69
2022/01/09 12:02:54;;;;;;;9.98;2.67;;;6.70;99.90;;;;;;5069486;28;20063;-68
2022/01/09 12:05:20;;;;;;;11.25;2.67;;;6.80;99.90;;;;;;5084736;28;20519;-68
2022/01/09 12:07:47;;;;;;;10.98;2.22;;;6.90;99.90;;;;;;5088647;28;20036;-69
2022/01/09 12:10:32;;;;;;;7.47;1.92;;;7.10;99.90;;;;;;5078385;28;20081;-69
2022/01/09 12:12:58;;;;;;;9.35;2.63;;;7.20;99.90;;;;;;5085616;28;20498;-68
2022/01/09 12:15:33;;;;;;;10.85;2.60;;;7.70;99.90;;;;;;5068691;28;20050;-69
2022/01/09 12:18:00;;;;;;;4.50;1.48;;;7.60;99.90;;;;;;5071594;28;20131;-69
2022/01/09 12:20:28;;;;;;;8.35;1.90;;;7.70;99.90;;;;;;5086332;28;20055;-69
2022/01/09 12:23:04;;;;;;;12.70;2.20;;;7.70;99.90;;;;;;5069561;28;20032;-69
2022/01/09 12:25:36;;;;;;;4.55;1.70;;;7.70;99.90;;;;;;5075410;28;20122;-69
2022/01/09 12:28:08;;;;;;;7.10;1.80;;;7.50;99.90;;;;;;5074680;28;20048;-69
2022/01/09 12:30:38;;;;;;;11.82;2.20;;;7.40;99.90;;;;;;5076237;28;20076;-69
2022/01/09 12:33:09;;;;;;;11.07;2.23;;;7.60;99.90;;;;;;5083206;28;20074;-69
2022/01/09 12:35:45;;;;;;;12.38;2.63;;;7.10;99.90;;;;;;5080187;28;21055;-69
2022/01/09 12:38:20;;;;;;;6.88;1.95;;;6.90;99.90;;;;;;5078920;28;20109;-69
2022/01/09 12:40:46;;;;;;;10.60;2.20;;;7.30;99.90;;;;;;5068820;28;20123;-69
2022/01/09 12:43:14;;;;;;;7.75;2.42;;;7.30;99.90;;;;;;5082996;28;20106;-70
2022/01/09 12:45:43;;;;;;;11.05;2.45;;;6.90;99.90;;;;;;5081266;28;20093;-69
2022/01/09 12:48:19;;;;;;;8.85;2.15;;;7.60;99.90;;;;;;5075579;28;20090;-69
2022/01/09 12:50:46;;;;;;;6.03;1.67;;;7.10;99.90;;;;;;5089359;28;20044;-69